createdAt,value
2023-03-06T00:00:29.720Z,3.45
2023-03-06T00:02:56.969Z,3.38
2023-03-06T00:05:23.725Z,3.42
2023-03-06T00:07:50.426Z,3.40
2023-03-06T00:10:19.726Z,3.48
2023-03-06T00:12:46.162Z,3.41
2023-03-06T00:15:13.594Z,3.45
2023-03-06T00:17:40.719Z,3.46
2023-03-06T00:20:08.582Z,3.30
2023-03-06T00:22:35.106Z,3.51
2023-03-06T00:25:01.459Z,3.50
2023-03-06T00:27:27.811Z,3.44
2023-03-06T00:29:58.725Z,3.37
2023-03-06T00:32:26.262Z,3.45
2023-03-06T00:34:53.924Z,3.30
2023-03-06T00:37:22.094Z,3.45
2023-03-06T00:39:49.545Z,3.48
2023-03-06T00:42:17.501Z,3.41
2023-03-06T00:44:44.282Z,3.28
2023-03-06T00:47:11.618Z,3.29
2023-03-06T00:49:38.421Z,3.31
2023-03-06T00:52:05.240Z,3.56
2023-03-06T00:54:31.688Z,3.69
2023-03-06T00:56:58.034Z,3.56
2023-03-06T00:59:24.417Z,3.51
2023-03-06T01:01:50.805Z,3.43
2023-03-06T01:04:17.257Z,3.55
2023-03-06T01:06:43.622Z,3.52
2023-03-06T01:09:10.050Z,3.66
2023-03-06T01:11:36.426Z,3.66
2023-03-06T01:14:02.956Z,3.69
2023-03-06T01:16:29.444Z,3.64
2023-03-06T01:18:56.040Z,3.57
2023-03-06T01:21:22.564Z,3.42
2023-03-06T01:23:48.968Z,3.63
2023-03-06T01:26:15.380Z,3.72
2023-03-06T01:28:41.842Z,3.69
2023-03-06T01:31:10.015Z,3.72
2023-03-06T01:33:36.831Z,3.68
2023-03-06T01:36:05.779Z,3.80
2023-03-06T01:38:32.705Z,3.78
2023-03-06T01:40:59.221Z,3.74
2023-03-06T01:43:29.172Z,3.78
2023-03-06T01:46:17.366Z,3.80
2023-03-06T01:48:47.571Z,3.62
2023-03-06T01:51:15.540Z,3.72
2023-03-06T01:53:43.571Z,3.67
2023-03-06T01:56:12.489Z,3.41
2023-03-06T01:58:40.068Z,3.30
2023-03-06T02:01:06.497Z,3.26
2023-03-06T02:03:33.764Z,3.28
2023-03-06T02:06:00.121Z,3.01
2023-03-06T02:08:27.556Z,2.85
2023-03-06T02:11:17.871Z,2.64
2023-03-06T02:13:45.610Z,2.44
2023-03-06T02:16:12.677Z,2.36
2023-03-06T02:18:40.826Z,2.36
2023-03-06T02:21:10.500Z,2.39
2023-03-06T02:24:00.677Z,2.28
2023-03-06T02:26:29.311Z,2.21
2023-03-06T02:28:58.353Z,2.17
2023-03-06T02:31:28.736Z,2.08
2023-03-06T02:34:14.126Z,2.19
2023-03-06T02:36:48.399Z,2.13
2023-03-06T02:39:16.542Z,2.20
2023-03-06T02:41:42.872Z,2.09
2023-03-06T02:44:09.267Z,2.14
2023-03-06T02:46:35.743Z,2.03
2023-03-06T02:49:02.364Z,2.14
2023-03-06T02:51:28.791Z,1.95
2023-03-06T02:53:55.185Z,2.10
2023-03-06T02:56:21.993Z,1.99
2023-03-06T02:58:48.415Z,2.01
2023-03-06T03:01:15.181Z,1.95
2023-03-06T03:03:42.660Z,1.94
2023-03-06T03:06:09.094Z,2.02
2023-03-06T03:08:36.348Z,1.85
2023-03-06T03:11:03.961Z,2.15
2023-03-06T03:13:30.510Z,1.99
2023-03-06T03:16:07.825Z,2.08
2023-03-06T03:18:35.626Z,2.08
2023-03-06T03:21:02.588Z,2.18
2023-03-06T03:23:28.948Z,2.18
2023-03-06T03:25:55.347Z,2.24
2023-03-06T03:28:21.736Z,2.12
2023-03-06T03:30:48.181Z,2.23
2023-03-06T03:33:14.706Z,2.29
2023-03-06T03:35:41.188Z,2.21
2023-03-06T03:38:07.673Z,2.09
2023-03-06T03:40:34.041Z,2.24
2023-03-06T03:43:00.416Z,2.18
2023-03-06T03:45:26.858Z,2.02
2023-03-06T03:47:53.223Z,2.13
2023-03-06T03:50:19.802Z,2.15
2023-03-06T03:52:46.182Z,2.18
2023-03-06T03:55:12.593Z,2.12
2023-03-06T03:57:39.239Z,2.20
2023-03-06T04:00:07.816Z,2.11
2023-03-06T04:02:34.248Z,2.37
2023-03-06T04:05:00.706Z,2.21
2023-03-06T04:07:27.086Z,2.23
2023-03-06T04:09:53.586Z,2.24
2023-03-06T04:12:19.967Z,2.35
2023-03-06T04:14:46.330Z,2.22
2023-03-06T04:17:12.714Z,1.99
2023-03-06T04:19:39.084Z,1.98
2023-03-06T04:22:05.472Z,2.09
2023-03-06T04:24:31.873Z,2.15
2023-03-06T04:26:58.207Z,2.07
2023-03-06T04:29:24.647Z,2.11
2023-03-06T04:31:51.020Z,2.07
2023-03-06T04:34:17.376Z,1.98
2023-03-06T04:36:46.647Z,1.89
2023-03-06T04:39:14.149Z,1.78
2023-03-06T04:41:41.602Z,1.70
2023-03-06T04:44:08.350Z,1.74
2023-03-06T04:46:35.633Z,1.79
2023-03-06T04:49:02.322Z,1.75
2023-03-06T04:51:28.726Z,1.49
2023-03-06T04:53:55.102Z,1.80
2023-03-06T04:56:21.454Z,1.77
2023-03-06T04:58:47.845Z,1.82
2023-03-06T05:01:14.294Z,1.59
2023-03-06T05:03:40.680Z,1.61
2023-03-06T05:06:07.350Z,1.81
2023-03-06T05:08:33.738Z,1.94
2023-03-06T05:11:01.546Z,1.79
2023-03-06T05:13:28.422Z,1.84
2023-03-06T05:15:54.814Z,1.82
2023-03-06T05:18:21.405Z,1.86
2023-03-06T05:20:47.764Z,1.92
2023-03-06T05:23:14.185Z,1.88
2023-03-06T05:25:41.060Z,1.97
2023-03-06T05:28:08.193Z,1.85
2023-03-06T05:30:34.998Z,1.76
2023-03-06T05:33:01.487Z,1.67
2023-03-06T05:35:28.087Z,1.74
2023-03-06T05:37:54.739Z,1.72
2023-03-06T05:40:21.443Z,1.73
2023-03-06T05:42:47.803Z,1.75
2023-03-06T05:45:14.238Z,1.81
2023-03-06T05:47:40.647Z,1.80
2023-03-06T05:50:08.285Z,1.65
2023-03-06T05:52:34.788Z,1.61
2023-03-06T05:55:01.281Z,1.73
2023-03-06T05:57:27.657Z,1.65
2023-03-06T05:59:54.202Z,1.70
2023-03-06T06:02:20.679Z,1.50
2023-03-06T06:04:47.035Z,1.58
2023-03-06T06:07:15.402Z,1.68
2023-03-06T06:09:45.241Z,1.77
2023-03-06T06:12:12.952Z,1.79
2023-03-06T06:14:39.414Z,1.87
2023-03-06T06:17:05.788Z,1.86
2023-03-06T06:19:32.416Z,1.83
2023-03-06T06:21:58.849Z,1.57
2023-03-06T06:24:26.930Z,1.59
2023-03-06T06:26:54.830Z,1.59
2023-03-06T06:29:21.945Z,1.77
2023-03-06T06:31:48.565Z,1.78
2023-03-06T06:34:15.274Z,1.82
2023-03-06T06:36:41.874Z,1.79
2023-03-06T06:39:09.007Z,1.60
2023-03-06T06:41:54.793Z,1.74
2023-03-06T06:44:22.257Z,1.77
2023-03-06T06:47:21.185Z,1.89
2023-03-06T06:49:37.236Z,1.66
2023-03-06T06:52:05.039Z,1.81
2023-03-06T06:54:32.751Z,1.99
2023-03-06T06:56:59.268Z,1.90
2023-03-06T06:59:25.950Z,2.00
2023-03-06T07:01:52.703Z,2.05
2023-03-06T07:04:19.517Z,1.97
2023-03-06T07:06:46.258Z,2.00
2023-03-06T07:09:13.434Z,1.92
2023-03-06T07:11:40.684Z,2.26
2023-03-06T07:14:07.256Z,1.99
2023-03-06T07:16:33.721Z,2.08
2023-03-06T07:19:00.121Z,2.21
2023-03-06T07:21:26.464Z,2.35
2023-03-06T07:23:54.238Z,2.15
2023-03-06T07:26:20.659Z,2.10
2023-03-06T07:28:52.729Z,2.26
2023-03-06T07:31:22.172Z,2.29
2023-03-06T07:33:50.198Z,2.25
2023-03-06T07:36:17.156Z,2.35
2023-03-06T07:38:43.648Z,2.66
2023-03-06T07:41:13.449Z,2.74
2023-03-06T07:43:44.433Z,2.96
2023-03-06T07:46:12.444Z,3.63
2023-03-06T07:48:40.050Z,3.27
2023-03-06T07:51:13.225Z,3.78
2023-03-06T07:53:39.592Z,4.17
2023-03-06T07:56:08.860Z,4.25
2023-03-06T07:58:36.448Z,4.20
2023-03-06T08:01:04.827Z,4.31
2023-03-06T08:03:31.373Z,5.07
2023-03-06T08:06:11.421Z,4.86
2023-03-06T08:08:39.809Z,4.25
2023-03-06T08:11:10.492Z,4.26
2023-03-06T08:13:36.897Z,3.69
2023-03-06T08:16:03.473Z,3.87
2023-03-06T08:18:29.991Z,3.90
2023-03-06T08:21:11.418Z,4.54
2023-03-06T08:23:38.811Z,5.44
2023-03-06T08:26:08.021Z,5.60
2023-03-06T08:28:34.793Z,6.59
2023-03-06T08:31:10.085Z,6.96
2023-03-06T08:33:37.438Z,6.70
2023-03-06T08:36:04.461Z,6.72
2023-03-06T08:38:30.937Z,6.80
2023-03-06T08:40:57.907Z,7.09
2023-03-06T08:43:24.266Z,7.57
2023-03-06T08:45:58.508Z,7.93
2023-03-06T08:48:25.495Z,7.60
2023-03-06T08:50:52.388Z,8.97
2023-03-06T08:53:19.274Z,8.45
2023-03-06T08:55:46.112Z,8.08
2023-03-06T08:58:12.712Z,7.92
2023-03-06T09:00:39.298Z,8.98
2023-03-06T09:03:06.224Z,8.50
2023-03-06T09:05:32.992Z,8.18
2023-03-06T09:07:59.426Z,7.57
2023-03-06T09:10:26.316Z,8.12
2023-03-06T09:12:55.075Z,8.44
2023-03-06T09:15:22.644Z,7.46
2023-03-06T09:17:49.194Z,8.43
2023-03-06T09:20:15.651Z,8.08
2023-03-06T09:22:42.438Z,8.35
2023-03-06T09:25:10.958Z,8.59
2023-03-06T09:27:37.313Z,8.99
2023-03-06T09:30:04.317Z,8.44
2023-03-06T09:32:30.702Z,9.16
2023-03-06T09:34:57.099Z,9.34
2023-03-06T09:37:23.492Z,9.07
2023-03-06T09:39:49.858Z,9.50
2023-03-06T09:42:18.705Z,9.32
2023-03-06T09:44:50.414Z,8.37
2023-03-06T09:47:31.793Z,8.61
2023-03-06T09:50:23.986Z,8.65
2023-03-06T09:53:32.617Z,8.46
2023-03-06T09:56:14.460Z,8.74
2023-03-06T09:58:47.298Z,8.33
2023-03-06T10:01:24.149Z,8.93
2023-03-06T10:04:19.275Z,8.67
2023-03-06T10:06:50.901Z,8.08
2023-03-06T10:09:24.277Z,7.51
2023-03-06T10:12:06.690Z,7.08
2023-03-06T10:14:48.775Z,7.28
2023-03-06T10:17:18.931Z,7.46
2023-03-06T10:19:47.490Z,7.47
2023-03-06T10:22:28.842Z,7.94
2023-03-06T10:25:30.319Z,8.82
2023-03-06T10:28:16.810Z,9.49
2023-03-06T10:31:10.833Z,9.41
2023-03-06T10:33:47.597Z,9.25
2023-03-06T10:36:18.664Z,9.93
2023-03-06T10:38:48.261Z,7.95
2023-03-06T10:41:14.591Z,7.75
2023-03-06T10:43:44.328Z,7.59
2023-03-06T10:46:14.533Z,8.41
2023-03-06T10:48:42.541Z,9.12
2023-03-06T10:51:21.369Z,10.07
2023-03-06T10:54:01.452Z,10.35
2023-03-06T10:56:36.734Z,10.40
2023-03-06T10:59:07.190Z,9.50
2023-03-06T11:01:33.938Z,9.17
2023-03-06T11:04:29.596Z,9.03
2023-03-06T11:07:32.388Z,10.19
2023-03-06T11:10:02.988Z,9.70
2023-03-06T11:12:36.631Z,9.69
2023-03-06T11:15:20.938Z,9.99
2023-03-06T11:17:51.853Z,10.10
2023-03-06T11:20:24.595Z,9.84
2023-03-06T11:23:15.847Z,9.81
2023-03-06T11:26:05.310Z,10.05
2023-03-06T11:28:37.317Z,10.40
2023-03-06T11:31:16.054Z,9.98
2023-03-06T11:33:58.409Z,10.30
2023-03-06T11:36:39.891Z,9.02
2023-03-06T11:39:41.745Z,8.45
2023-03-06T11:42:18.619Z,8.48
2023-03-06T11:44:57.668Z,9.17
2023-03-06T11:47:32.022Z,8.77
2023-03-06T11:50:22.498Z,8.60
2023-03-06T11:53:01.586Z,8.27
2023-03-06T11:55:39.330Z,8.53
2023-03-06T11:58:43.047Z,7.98
2023-03-06T12:01:46.574Z,9.73
2023-03-06T12:04:45.669Z,10.65
2023-03-06T12:07:23.832Z,10.12
2023-03-06T12:10:27.703Z,9.57
2023-03-06T12:13:35.959Z,8.94
2023-03-06T12:16:27.963Z,8.76
2023-03-06T12:19:38.149Z,8.76
2023-03-06T12:22:35.450Z,8.88
2023-03-06T12:25:17.547Z,8.61
2023-03-06T12:27:49.724Z,8.47
2023-03-06T12:30:31.141Z,8.44
2023-03-06T12:33:20.295Z,8.78
2023-03-06T12:36:28.343Z,9.08
2023-03-06T12:39:03.449Z,9.07
2023-03-06T12:41:46.370Z,9.18
2023-03-06T12:44:30.825Z,9.50
2023-03-06T12:47:01.808Z,9.38
2023-03-06T12:49:32.850Z,9.43
2023-03-06T12:52:02.052Z,9.38
2023-03-06T12:54:33.242Z,9.16
2023-03-06T12:57:00.650Z,9.37
2023-03-06T12:59:44.147Z,9.03
2023-03-06T13:02:19.497Z,9.09
2023-03-06T13:05:29.283Z,8.62
2023-03-06T13:08:17.424Z,8.76
2023-03-06T13:11:02.577Z,9.00
2023-03-06T13:13:41.360Z,8.62
2023-03-06T13:16:18.079Z,8.92
2023-03-06T13:18:44.428Z,8.50
2023-03-06T13:21:41.952Z,8.63
2023-03-06T13:24:22.169Z,8.37
2023-03-06T13:26:56.198Z,8.18
2023-03-06T13:29:37.684Z,8.05
2023-03-06T13:32:04.121Z,8.20
2023-03-06T13:34:34.629Z,7.94
2023-03-06T13:37:19.826Z,7.85
2023-03-06T13:39:55.025Z,8.00
2023-03-06T13:42:31.792Z,7.84
2023-03-06T13:45:06.213Z,8.13
2023-03-06T13:47:59.325Z,8.00
2023-03-06T13:50:43.360Z,8.24
2023-03-06T13:53:29.727Z,8.24
2023-03-06T13:56:37.819Z,8.40
2023-03-06T13:59:31.783Z,8.04
2023-03-06T14:02:00.797Z,7.93
2023-03-06T14:04:38.042Z,8.21
2023-03-06T14:07:10.950Z,8.41
2023-03-06T14:09:46.428Z,8.10
2023-03-06T14:12:23.688Z,8.22
2023-03-06T14:14:59.915Z,8.59
2023-03-06T14:17:35.362Z,8.16
2023-03-06T14:20:13.896Z,8.07
2023-03-06T14:22:40.658Z,8.09
2023-03-06T14:25:22.087Z,8.07
2023-03-06T14:27:54.953Z,8.09
2023-03-06T14:30:26.050Z,8.07
2023-03-06T14:32:54.998Z,8.10
2023-03-06T14:35:30.475Z,8.18
2023-03-06T14:38:00.148Z,7.98
2023-03-06T14:40:31.370Z,8.11
2023-03-06T14:43:20.298Z,7.85
2023-03-06T14:45:50.845Z,7.64
2023-03-06T14:48:17.243Z,7.59
2023-03-06T14:50:49.463Z,7.60
2023-03-06T14:53:19.099Z,7.59
2023-03-06T14:56:01.098Z,7.70
2023-03-06T14:58:36.136Z,7.50
2023-03-06T15:01:07.652Z,7.43
2023-03-06T15:03:50.820Z,7.30
2023-03-06T15:06:20.896Z,7.49
2023-03-06T15:08:52.386Z,7.36
2023-03-06T15:11:18.772Z,7.40
2023-03-06T15:14:00.673Z,7.17
2023-03-06T15:16:30.328Z,7.19
2023-03-06T15:18:59.822Z,7.29
2023-03-06T15:21:28.524Z,7.17
2023-03-06T15:23:57.202Z,7.20
2023-03-06T15:26:34.453Z,7.19
2023-03-06T15:29:21.543Z,6.97
2023-03-06T15:31:47.964Z,6.98
2023-03-06T15:34:16.805Z,7.10
2023-03-06T15:36:54.943Z,6.97
2023-03-06T15:39:29.206Z,6.87
2023-03-06T15:42:18.249Z,6.83
2023-03-06T15:44:50.268Z,6.65
2023-03-06T15:47:17.127Z,6.77
2023-03-06T15:49:43.577Z,6.77
2023-03-06T15:52:10.132Z,6.79
2023-03-06T15:54:36.800Z,6.72
2023-03-06T15:57:07.137Z,6.79
2023-03-06T15:59:42.810Z,6.71
2023-03-06T16:02:27.589Z,6.74
2023-03-06T16:04:54.077Z,6.53
2023-03-06T16:07:20.805Z,6.30
2023-03-06T16:09:47.398Z,6.41
2023-03-06T16:12:17.291Z,6.45
2023-03-06T16:14:45.026Z,6.39
2023-03-06T16:17:12.743Z,6.46
2023-03-06T16:19:39.463Z,6.32
2023-03-06T16:22:05.937Z,6.35
2023-03-06T16:24:32.392Z,6.41
2023-03-06T16:27:01.164Z,6.36
2023-03-06T16:29:28.551Z,6.39
2023-03-06T16:31:56.425Z,6.37
2023-03-06T16:34:23.393Z,6.28
2023-03-06T16:36:49.890Z,6.28
2023-03-06T16:39:18.602Z,6.25
2023-03-06T16:41:45.931Z,6.31
2023-03-06T16:44:12.759Z,6.12
2023-03-06T16:46:47.372Z,6.15
2023-03-06T16:49:20.188Z,6.02
2023-03-06T16:51:46.670Z,5.99
2023-03-06T16:54:13.307Z,5.97
2023-03-06T16:56:39.762Z,5.91
2023-03-06T16:59:06.572Z,5.82
2023-03-06T17:01:33.008Z,5.70
2023-03-06T17:03:59.454Z,5.95
2023-03-06T17:06:25.957Z,5.97
2023-03-06T17:08:52.454Z,5.96
2023-03-06T17:11:20.392Z,5.88
2023-03-06T17:13:47.640Z,5.62
2023-03-06T17:16:16.302Z,5.70
2023-03-06T17:18:44.493Z,5.45
2023-03-06T17:21:11.318Z,5.28
2023-03-06T17:23:38.180Z,5.02
2023-03-06T17:26:07.672Z,4.81
2023-03-06T17:28:35.542Z,4.86
2023-03-06T17:31:04.093Z,4.77
2023-03-06T17:33:30.630Z,4.73
2023-03-06T17:35:59.273Z,4.65
2023-03-06T17:38:25.842Z,4.71
2023-03-06T17:40:52.252Z,4.71
2023-03-06T17:43:18.889Z,4.55
2023-03-06T17:45:47.318Z,4.57
2023-03-06T17:48:14.748Z,4.43
2023-03-06T17:50:41.125Z,4.23
2023-03-06T17:53:07.505Z,4.25
2023-03-06T17:55:33.869Z,4.33
2023-03-06T17:58:00.275Z,4.26
2023-03-06T18:00:26.737Z,4.05
2023-03-06T18:02:53.250Z,4.12
2023-03-06T18:05:21.690Z,4.16
2023-03-06T18:07:48.098Z,4.16
2023-03-06T18:10:14.468Z,4.09
2023-03-06T18:12:40.875Z,4.19
2023-03-06T18:15:07.837Z,4.12
2023-03-06T18:17:34.168Z,4.03
2023-03-06T18:20:00.540Z,4.13
2023-03-06T18:22:27.033Z,4.03
2023-03-06T18:24:53.432Z,4.26
2023-03-06T18:27:20.692Z,4.23
2023-03-06T18:29:47.323Z,4.11
2023-03-06T18:32:14.162Z,4.16
2023-03-06T18:34:40.533Z,4.16
2023-03-06T18:37:07.068Z,4.22
2023-03-06T18:39:33.451Z,4.20
2023-03-06T18:41:59.832Z,4.14
2023-03-06T18:44:26.221Z,4.18
2023-03-06T18:46:52.656Z,4.27
2023-03-06T18:49:19.244Z,4.29
2023-03-06T18:51:48.048Z,4.03
2023-03-06T18:54:14.461Z,4.01
2023-03-06T18:56:44.062Z,3.99
2023-03-06T18:59:16.110Z,4.02
2023-03-06T19:01:45.119Z,3.64
2023-03-06T19:04:11.962Z,3.87
2023-03-06T19:06:39.348Z,3.94
2023-03-06T19:09:06.019Z,3.89
2023-03-06T19:11:33.877Z,3.94
2023-03-06T19:14:00.362Z,3.74
2023-03-06T19:16:28.807Z,3.55
2023-03-06T19:18:55.959Z,3.98
2023-03-06T19:21:24.768Z,4.00
2023-03-06T19:23:51.632Z,3.75
2023-03-06T19:26:18.757Z,3.94
2023-03-06T19:28:46.212Z,3.94
2023-03-06T19:31:20.810Z,3.85
2023-03-06T19:33:48.912Z,3.97
2023-03-06T19:36:17.105Z,3.93
2023-03-06T19:38:43.659Z,3.92
2023-03-06T19:41:13.776Z,3.96
2023-03-06T19:43:41.694Z,3.92
2023-03-06T19:46:14.183Z,3.91
2023-03-06T19:48:41.843Z,3.92
2023-03-06T19:51:08.966Z,3.84
2023-03-06T19:53:35.911Z,3.79
2023-03-06T19:56:07.920Z,3.70
2023-03-06T19:58:35.740Z,3.73
2023-03-06T20:01:11.411Z,3.73
2023-03-06T20:03:38.637Z,3.68
2023-03-06T20:06:08.915Z,3.81
2023-03-06T20:08:36.468Z,3.76
2023-03-06T20:11:02.942Z,3.81
2023-03-06T20:13:29.811Z,3.83
2023-03-06T20:15:56.918Z,3.74
2023-03-06T20:18:23.462Z,3.85
2023-03-06T20:21:01.269Z,3.82
2023-03-06T20:23:28.522Z,3.87
2023-03-06T20:25:55.165Z,3.91
2023-03-06T20:28:22.807Z,3.88
2023-03-06T20:30:49.306Z,3.68
2023-03-06T20:33:16.719Z,3.89
2023-03-06T20:35:43.562Z,3.52
2023-03-06T20:38:10.551Z,3.90
2023-03-06T20:40:38.340Z,3.90
2023-03-06T20:43:04.900Z,3.93
2023-03-06T20:45:31.602Z,3.97
2023-03-06T20:47:57.974Z,3.94
2023-03-06T20:50:25.687Z,3.99
2023-03-06T20:52:56.682Z,3.93
2023-03-06T20:55:23.175Z,3.86
2023-03-06T20:57:50.888Z,3.97
2023-03-06T21:00:20.927Z,3.99
2023-03-06T21:02:47.634Z,3.98
2023-03-06T21:05:14.192Z,3.99
2023-03-06T21:07:40.642Z,4.05
2023-03-06T21:10:08.004Z,4.02
2023-03-06T21:12:34.377Z,3.96
2023-03-06T21:15:00.813Z,3.98
2023-03-06T21:17:27.540Z,3.91
2023-03-06T21:19:53.892Z,4.00
2023-03-06T21:22:20.235Z,4.01
2023-03-06T21:24:46.625Z,3.89
2023-03-06T21:27:13.061Z,3.95
2023-03-06T21:29:39.506Z,3.94
2023-03-06T21:32:06.097Z,3.97
2023-03-06T21:34:32.707Z,3.87
2023-03-06T21:36:59.048Z,3.94
2023-03-06T21:39:25.406Z,3.92
2023-03-06T21:41:51.782Z,3.91
2023-03-06T21:44:18.148Z,3.97
2023-03-06T21:46:44.579Z,3.98
2023-03-06T21:49:10.981Z,3.90
2023-03-06T21:51:37.357Z,3.78
2023-03-06T21:54:05.848Z,3.83
2023-03-06T21:56:33.399Z,3.68
2023-03-06T21:58:59.917Z,3.82
2023-03-06T22:01:28.775Z,3.75
2023-03-06T22:03:55.793Z,3.82
2023-03-06T22:06:25.081Z,3.84
2023-03-06T22:08:52.085Z,3.81
2023-03-06T22:11:20.328Z,3.71
2023-03-06T22:13:48.101Z,3.68
2023-03-06T22:16:15.744Z,3.67
2023-03-06T22:18:44.952Z,3.72
2023-03-06T22:21:13.511Z,3.73
2023-03-06T22:23:40.659Z,3.75
2023-03-06T22:26:11.111Z,3.73
2023-03-06T22:28:37.935Z,3.80
2023-03-06T22:31:09.799Z,3.75
2023-03-06T22:33:36.854Z,3.78
2023-03-06T22:36:06.352Z,3.88
2023-03-06T22:38:34.294Z,3.81
2023-03-06T22:41:01.084Z,3.69
2023-03-06T22:43:27.438Z,3.83
2023-03-06T22:45:54.001Z,3.80
2023-03-06T22:48:20.904Z,3.91
2023-03-06T22:50:47.389Z,3.79
2023-03-06T22:53:13.808Z,3.87
2023-03-06T22:55:40.196Z,3.80
2023-03-06T22:58:06.553Z,3.84
2023-03-06T23:00:33.001Z,3.84
2023-03-06T23:02:59.457Z,3.83
2023-03-06T23:05:27.414Z,3.85
2023-03-06T23:07:55.516Z,3.86
2023-03-06T23:10:21.901Z,3.83
2023-03-06T23:12:48.259Z,3.80
2023-03-06T23:15:14.620Z,3.88
2023-03-06T23:17:41.043Z,3.83
2023-03-06T23:20:10.010Z,3.65
2023-03-06T23:22:36.454Z,3.91
2023-03-06T23:25:02.825Z,3.85
2023-03-06T23:27:29.384Z,3.93
2023-03-06T23:29:58.748Z,3.86
2023-03-06T23:32:25.241Z,3.89
2023-03-06T23:34:51.675Z,3.92
2023-03-06T23:37:18.039Z,3.95
2023-03-06T23:39:44.415Z,4.00
2023-03-06T23:42:11.001Z,3.98
2023-03-06T23:44:37.341Z,4.03
2023-03-06T23:47:03.765Z,3.78
2023-03-06T23:49:30.164Z,4.03
2023-03-06T23:51:56.500Z,4.08
2023-03-06T23:54:22.964Z,3.76
2023-03-06T23:56:49.400Z,3.99
2023-03-06T23:59:16.100Z,3.99
